METAR

291600Z 12002KT 10SM OVC015 21/15 A3010 RMK SLP196=
METAR Not Available
Runways in Use
Field Conditions
BRAKING ACTION ADVISORIES ARE IN EFFECT.
RUNWAY 06 IS WET.
FLIGHT CHECK OPERATIONS IN PROGRESS.
NOTAMs/Advisories
TWY A CLOSED UNTIL JAN 01 AT 00 00 Z.
ILS OUT OF SERVICE.
Signoff
ADVISE ON INITIAL CONTACT YOU HAVE INFORMATION ALFA.